Time;durP1;ratioP1;P1;durP2;ratioP2;P2;SDS_P1;SDS_P2;PMS_P1;PMS_P2;Temp;Humidity;BMP_temperature;BMP_pressure;BME280_temperature;BME280_humidity;BME280_pressure;Samples;Min_cycle;Max_cycle;Signal;HPM_P1;HPM_P2
2022/04/29 00:02:01;;;;;;;7.45;4.60;;;12.90;87.00;;;;;;5037679;28;20045;-78
2022/04/29 00:04:29;;;;;;;6.60;4.68;;;12.80;89.50;;;;;;5042789;28;20079;-79
2022/04/29 00:06:54;;;;;;;11.20;5.63;;;12.80;89.50;;;;;;5023476;28;20048;-79
2022/04/29 00:09:21;;;;;;;9.77;5.57;;;12.70;90.80;;;;;;5040712;28;20020;-80
2022/04/29 00:11:47;;;;;;;7.70;4.90;;;12.70;91.40;;;;;;5060784;28;20024;-80
2022/04/29 00:14:19;;;;;;;7.47;4.72;;;12.70;91.60;;;;;;5061034;28;20096;-79
2022/04/29 00:19:49;;;;;;;6.50;4.80;;;12.70;92.20;;;;;;5046663;28;20036;-79
2022/04/29 00:22:15;;;;;;;9.38;5.22;;;12.60;92.60;;;;;;5052912;28;20041;-80
2022/04/29 00:24:40;;;;;;;6.90;4.75;;;12.60;93.00;;;;;;5055409;28;20549;-80
2022/04/29 00:27:07;;;;;;;7.15;4.28;;;14.20;93.60;;;;;;5049214;28;20047;-79
2022/04/29 00:29:32;;;;;;;6.72;4.65;;;12.60;93.00;;;;;;5043726;28;20017;-80
2022/04/29 00:31:58;;;;;;;5.82;4.28;;;12.60;92.90;;;;;;5026535;28;20021;-78
2022/04/29 00:34:29;;;;;;;6.75;4.32;;;12.50;92.80;;;;;;5044147;28;20032;-78
2022/04/29 00:40:42;;;;;;;7.88;4.13;;;12.50;93.50;;;;;;5060662;28;20021;-79
2022/04/29 00:43:11;;;;;;;6.97;4.50;;;12.40;93.90;;;;;;5054292;28;20071;-79
2022/04/29 00:45:37;;;;;;;9.52;4.10;;;12.40;94.30;;;;;;5060842;28;20025;-78
2022/04/29 00:48:03;;;;;;;6.15;4.18;;;12.40;94.60;;;;;;5051001;28;20044;-79
2022/04/29 00:50:30;;;;;;;5.88;4.40;;;12.40;95.00;;;;;;5069967;28;20051;-80
2022/04/29 00:52:57;;;;;;;6.65;4.10;;;12.30;94.90;;;;;;5075580;28;20048;-79
2022/04/29 00:55:29;;;;;;;8.50;4.22;;;12.30;95.10;;;;;;5075932;28;20020;-78
2022/04/29 00:58:38;;;;;;;5.60;4.25;;;13.60;95.70;;;;;;5074881;28;20017;-79
2022/04/29 01:01:13;;;;;;;8.88;4.55;;;12.20;95.50;;;;;;4975577;29;20031;-78
2022/04/29 01:03:39;;;;;;;6.10;3.95;;;;;;;;;;5044448;28;20037;-80
2022/04/29 01:06:05;;;;;;;7.07;4.38;;;12.00;95.90;;;;;;5054655;28;20025;-79
2022/04/29 01:08:31;;;;;;;8.18;4.28;;;12.00;96.00;;;;;;5061752;28;20081;-78
2022/04/29 01:11:02;;;;;;;6.93;4.20;;;11.90;96.10;;;;;;5060133;28;20056;-78
2022/04/29 01:13:28;;;;;;;5.70;4.53;;;11.90;96.50;;;;;;5065100;28;20058;-79
2022/04/29 01:15:57;;;;;;;7.20;4.55;;;11.90;97.10;;;;;;5049075;28;20033;-79
2022/04/29 01:18:27;;;;;;;5.97;3.70;;;14.00;97.80;;;;;;5047594;28;20103;-78
2022/04/29 01:21:06;;;;;;;6.38;4.65;;;11.80;97.80;;;;;;5073518;28;20025;-79
2022/04/29 01:23:33;;;;;;;5.45;4.15;;;11.70;98.30;;;;;;5072105;28;20036;-78
2022/04/29 01:25:58;;;;;;;8.93;4.90;;;11.70;98.80;;;;;;5106342;22;20047;-85
2022/04/29 01:28:25;;;;;;;7.05;4.70;;;11.70;99.20;;;;;;5077271;28;20024;-83
2022/04/29 01:30:51;;;;;;;6.68;5.18;;;11.60;99.90;;;;;;5060474;28;20048;-85
2022/04/29 01:33:18;;;;;;;6.75;4.85;;;11.60;99.90;;;;;;5057972;28;20047;-84
2022/04/29 01:35:45;;;;;;;7.45;4.80;;;11.60;99.90;;;;;;5054815;28;20513;-84
2022/04/29 01:38:11;;;;;;;8.18;5.07;;;11.60;99.90;;;;;;5052902;28;20033;-82
2022/04/29 01:40:36;;;;;;;6.65;4.30;;;11.60;99.90;;;;;;5061515;28;20018;-87
2022/04/29 01:43:03;;;;;;;7.10;4.57;;;;;;;;;;5070151;28;20093;-84
2022/04/29 01:45:29;;;;;;;8.38;4.47;;;;;;;;;;5067783;28;20055;-82
2022/04/29 01:47:54;;;;;;;8.90;5.10;;;11.50;99.90;;;;;;5058248;28;20033;-83
2022/04/29 01:50:21;;;;;;;8.60;5.22;;;;;;;;;;5056350;28;20025;-85
2022/04/29 01:52:46;;;;;;;7.38;4.43;;;11.50;99.90;;;;;;5044252;28;20025;-85
2022/04/29 01:55:12;;;;;;;11.85;5.00;;;;;;;;;;5057246;28;20039;-81
2022/04/29 01:57:38;;;;;;;5.90;4.22;;;;;;;;;;5035463;28;20087;-84
2022/04/29 02:00:05;;;;;;;6.43;4.45;;;11.30;99.90;;;;;;5037910;28;20025;-86
2022/04/29 02:02:31;;;;;;;7.88;4.80;;;11.30;99.90;;;;;;5044980;28;20051;-85
2022/04/29 02:04:56;;;;;;;6.95;4.60;;;13.80;99.90;;;;;;5059687;28;20096;-88
2022/04/29 02:07:22;;;;;;;6.70;4.35;;;;;;;;;;5064601;28;20029;-85
2022/04/29 02:09:48;;;;;;;7.63;4.40;;;11.20;99.90;;;;;;5047484;28;20036;-82
2022/04/29 02:12:15;;;;;;;7.38;4.32;;;11.20;99.90;;;;;;5044759;28;20032;-88
2022/04/29 02:14:42;;;;;;;6.30;3.97;;;11.20;99.90;;;;;;5050622;28;20013;-82
2022/04/29 02:17:10;;;;;;;6.82;4.70;;;12.70;99.90;;;;;;5058528;28;20085;-84
2022/04/29 02:19:37;;;;;;;6.22;4.47;;;11.20;99.90;;;;;;5034017;28;20025;-83
2022/04/29 02:22:04;;;;;;;7.05;4.38;;;11.10;99.90;;;;;;5039920;28;20446;-83
2022/04/29 02:24:31;;;;;;;6.95;4.20;;;11.10;99.90;;;;;;5039747;28;20056;-84
2022/04/29 02:26:59;;;;;;;7.18;4.22;;;11.10;99.90;;;;;;5035444;28;20041;-83
2022/04/29 02:29:27;;;;;;;6.47;4.50;;;11.10;99.90;;;;;;5038651;28;20584;-84
2022/04/29 02:31:52;;;;;;;7.15;4.80;;;10.90;99.90;;;;;;5031811;28;20103;-85
2022/04/29 02:34:18;;;;;;;5.43;3.90;;;11.10;99.90;;;;;;5055116;28;20478;-83
2022/04/29 02:36:44;;;;;;;10.80;4.43;;;11.10;99.90;;;;;;5035011;28;20644;-81
2022/04/29 02:39:10;;;;;;;6.57;5.20;;;11.00;99.90;;;;;;5048381;28;20470;-83
2022/04/29 02:41:36;;;;;;;6.70;4.30;;;;;;;;;;5043885;28;20100;-82
2022/04/29 02:44:03;;;;;;;7.90;4.70;;;;;;;;;;5036395;28;20071;-85
2022/04/29 02:46:29;;;;;;;6.65;4.80;;;;;;;;;;5038085;28;20028;-83
2022/04/29 02:48:55;;;;;;;5.78;4.55;;;;;;;;;;5038207;28;20109;-82
2022/04/29 02:51:20;;;;;;;7.30;4.90;;;10.80;99.90;;;;;;5055312;28;20053;-82
2022/04/29 02:53:46;;;;;;;8.05;4.35;;;;;;;;;;5037482;28;20221;-84
2022/04/29 02:56:12;;;;;;;9.40;4.70;;;;;;;;;;5063444;28;20069;-83
2022/04/29 02:58:38;;;;;;;6.05;4.45;;;10.80;99.90;;;;;;5041702;28;20078;-83
2022/04/29 03:01:04;;;;;;;8.25;4.68;;;;;;;;;;5065497;28;20029;-82
2022/04/29 03:03:31;;;;;;;8.13;4.70;;;;;;;;;;5056150;28;20339;-83
2022/04/29 03:05:57;;;;;;;6.07;4.53;;;10.60;99.90;;;;;;5061973;28;20029;-83
2022/04/29 03:08:23;;;;;;;8.60;4.50;;;;;;;;;;5041630;28;20025;-81
2022/04/29 03:10:48;;;;;;;10.35;5.28;;;10.50;99.90;;;;;;5047603;28;20083;-84
2022/04/29 03:13:15;;;;;;;7.75;5.15;;;10.40;99.90;;;;;;5059488;28;20024;-82
2022/04/29 03:15:41;;;;;;;8.52;6.25;;;10.40;99.90;;;;;;5035017;28;20053;-81
2022/04/29 03:18:20;;;;;;;6.88;4.57;;;10.40;99.90;;;;;;5049481;28;20402;-84
2022/04/29 03:20:49;;;;;;;10.40;5.20;;;10.40;99.90;;;;;;5044011;28;20479;-83
2022/04/29 03:23:15;;;;;;;8.02;5.13;;;;;;;;;;5038366;28;20104;-85
2022/04/29 03:25:41;;;;;;;8.02;4.90;;;;;;;;;;5053490;28;20048;-85
2022/04/29 03:28:07;;;;;;;6.03;4.63;;;10.40;99.90;;;;;;5034444;28;20025;-88
2022/04/29 03:30:34;;;;;;;6.22;5.10;;;10.40;99.90;;;;;;5055803;28;20029;-84
2022/04/29 03:33:02;;;;;;;7.47;5.20;;;10.40;99.90;;;;;;5057083;28;20644;-84
2022/04/29 03:35:28;;;;;;;9.05;5.30;;;10.30;99.90;;;;;;5044737;28;20033;-84
2022/04/29 03:37:53;;;;;;;8.38;5.53;;;10.30;99.90;;;;;;5039414;28;20080;-83
2022/04/29 03:40:21;;;;;;;7.20;5.18;;;10.30;99.90;;;;;;5051351;28;20033;-83
2022/04/29 03:42:48;;;;;;;5.78;4.53;;;10.30;99.90;;;;;;5048395;28;20033;-84
2022/04/29 03:45:14;;;;;;;12.38;5.15;;;10.30;99.90;;;;;;5059999;28;20033;-83
2022/04/29 03:47:40;;;;;;;7.10;5.15;;;10.30;99.90;;;;;;5050004;28;20051;-84
2022/04/29 03:50:06;;;;;;;8.45;5.40;;;10.30;99.90;;;;;;5049785;28;20021;-83
2022/04/29 03:52:32;;;;;;;8.38;5.28;;;;;;;;;;5040820;28;20029;-82
2022/04/29 03:54:58;;;;;;;7.13;5.10;;;10.30;99.90;;;;;;5041480;28;20101;-85
2022/04/29 03:57:24;;;;;;;7.57;5.60;;;;;;;;;;5039474;28;20045;-81
2022/04/29 03:59:50;;;;;;;6.88;4.82;;;10.30;99.90;;;;;;5045753;28;20028;-82
2022/04/29 04:02:16;;;;;;;8.15;5.30;;;;;;;;;;5059738;28;20066;-80
2022/04/29 04:04:42;;;;;;;9.70;5.45;;;;;;;;;;5063656;28;20045;-81
2022/04/29 04:07:08;;;;;;;8.68;5.15;;;;;;;;;;5063578;28;20024;-83
2022/04/29 04:09:34;;;;;;;8.10;5.45;;;10.30;99.90;;;;;;5045856;28;20538;-81
2022/04/29 04:12:00;;;;;;;7.50;5.35;;;;;;;;;;5060920;28;20025;-86
2022/04/29 04:14:26;;;;;;;8.75;5.53;;;;;;;;;;5042363;28;20025;-81
2022/04/29 04:16:52;;;;;;;8.02;5.43;;;;;;;;;;5058668;28;20036;-81
2022/04/29 04:19:18;;;;;;;8.20;5.60;;;;;;;;;;5065525;28;20021;-85
2022/04/29 04:21:44;;;;;;;6.63;5.47;;;;;;;;;;5046681;28;20033;-84
2022/04/29 04:24:11;;;;;;;9.88;5.75;;;;;;;;;;5045526;28;20087;-82
2022/04/29 04:26:37;;;;;;;8.05;5.82;;;;;;;;;;5042237;28;20025;-85
2022/04/29 04:29:03;;;;;;;6.55;5.53;;;;;;;;;;5062633;28;20088;-83
2022/04/29 04:31:29;;;;;;;8.35;5.82;;;;;;;;;;5057264;28;20490;-82
2022/04/29 04:33:55;;;;;;;12.68;5.90;;;10.30;99.90;;;;;;5028350;28;20029;-84
2022/04/29 04:36:21;;;;;;;12.15;6.60;;;;;;;;;;5056958;28;20066;-81
2022/04/29 04:38:47;;;;;;;10.18;6.47;;;10.30;99.90;;;;;;5060324;28;20106;-83
2022/04/29 04:41:16;;;;;;;9.23;5.85;;;10.30;99.90;;;;;;5043621;28;20025;-84
2022/04/29 04:43:42;;;;;;;13.18;6.35;;;;;;;;;;5055544;28;20051;-85
2022/04/29 04:46:08;;;;;;;9.52;5.85;;;10.30;99.90;;;;;;5038920;28;20029;-82
2022/04/29 04:48:34;;;;;;;11.40;5.90;;;;;;;;;;5064851;28;20029;-84
2022/04/29 04:51:04;;;;;;;8.93;6.00;;;;;;;;;;5053280;28;20093;-84
2022/04/29 04:53:30;;;;;;;8.17;6.77;;;;;;;;;;5062434;28;20108;-82
2022/04/29 04:55:56;;;;;;;11.10;6.03;;;;;;;;;;5043758;28;20283;-81
2022/04/29 04:58:22;;;;;;;7.90;5.68;;;;;;;;;;5044779;28;20033;-84
2022/04/29 05:00:48;;;;;;;9.00;6.78;;;;;;;;;;5045161;28;20033;-84
2022/04/29 05:03:15;;;;;;;11.52;6.53;;;;;;;;;;5061891;28;20158;-83
2022/04/29 05:05:41;;;;;;;13.90;7.00;;;;;;;;;;5060572;28;20047;-82
2022/04/29 05:08:07;;;;;;;9.05;5.90;;;;;;;;;;5034558;28;20079;-84
2022/04/29 05:10:33;;;;;;;9.70;5.97;;;;;;;;;;5042240;28;20036;-82
2022/04/29 05:12:59;;;;;;;9.18;5.95;;;;;;;;;;5043396;28;20036;-84
2022/04/29 05:15:25;;;;;;;12.27;7.13;;;;;;;;;;5062903;28;20048;-81
2022/04/29 05:17:51;;;;;;;10.60;6.40;;;;;;;;;;5055697;28;20033;-84
2022/04/29 05:20:17;;;;;;;11.38;6.70;;;;;;;;;;5041687;28;20541;-82
2022/04/29 05:22:45;;;;;;;10.55;6.55;;;10.60;99.90;;;;;;5059021;28;20410;-84
2022/04/29 05:25:11;;;;;;;12.65;7.00;;;10.70;99.90;;;;;;5059574;28;20158;-84
2022/04/29 05:27:37;;;;;;;12.95;6.82;;;;;;;;;;5046354;28;20061;-84
2022/04/29 05:30:03;;;;;;;12.80;6.97;;;10.80;99.90;;;;;;5044694;28;20020;-85
2022/04/29 05:32:30;;;;;;;11.02;6.78;;;10.80;99.90;;;;;;5039268;28;20707;-86
2022/04/29 05:34:56;;;;;;;10.93;7.13;;;10.90;99.90;;;;;;5037705;28;20509;-83
2022/04/29 05:37:22;;;;;;;11.20;7.00;;;;;;;;;;5031258;28;20036;-84
2022/04/29 05:42:33;;;;;;;11.98;7.68;;;11.20;99.90;;;;;;5046976;28;20140;-83
2022/04/29 05:45:00;;;;;;;9.75;6.40;;;;;;;;;;5025719;28;20071;-83
2022/04/29 05:47:26;;;;;;;13.25;7.20;;;;;;;;;;5026944;28;20033;-83
2022/04/29 05:49:52;;;;;;;13.00;7.18;;;;;;;;;;5029656;28;20319;-84
2022/04/29 05:52:18;;;;;;;12.00;7.43;;;;;;;;;;5043610;28;20135;-82
2022/04/29 05:54:45;;;;;;;11.73;7.55;;;;;;;;;;5013379;28;20033;-84
2022/04/29 05:57:13;;;;;;;13.65;8.55;;;;;;;;;;5034273;28;20043;-82
2022/04/29 05:59:39;;;;;;;13.18;8.35;;;11.60;99.90;;;;;;5034717;28;20060;-86
2022/04/29 06:02:05;;;;;;;10.52;7.20;;;;;;;;;;5050027;28;20025;-84
2022/04/29 06:04:31;;;;;;;10.50;7.25;;;11.80;99.90;;;;;;5009634;28;20107;-83
2022/04/29 06:06:57;;;;;;;12.27;7.13;;;;;;;;;;5032913;28;20025;-84
2022/04/29 06:09:25;;;;;;;11.90;6.80;;;;;;;;;;5046454;28;20025;-83
2022/04/29 06:11:51;;;;;;;10.88;7.05;;;11.80;99.90;;;;;;5051142;28;20033;-83
2022/04/29 06:14:17;;;;;;;10.88;6.78;;;;;;;;;;5055081;28;20025;-82
2022/04/29 06:16:44;;;;;;;11.07;7.38;;;12.00;99.90;;;;;;5033896;28;20037;-83
2022/04/29 06:19:10;;;;;;;8.85;7.05;;;12.10;99.90;;;;;;5039776;28;20124;-84
2022/04/29 06:21:36;;;;;;;15.02;7.38;;;14.50;99.90;;;;;;5044878;28;20067;-83
2022/04/29 06:24:01;;;;;;;10.82;7.40;;;12.20;99.90;;;;;;5037465;28;20025;-84
2022/04/29 06:26:27;;;;;;;11.20;7.43;;;12.30;99.90;;;;;;5037244;28;20037;-84
2022/04/29 06:28:53;;;;;;;10.68;7.10;;;12.90;99.90;;;;;;5055519;28;20036;-85
2022/04/29 06:31:18;;;;;;;13.82;8.07;;;12.30;99.90;;;;;;5043027;28;20410;-82
2022/04/29 06:33:44;;;;;;;15.57;7.68;;;14.40;99.90;;;;;;5043979;28;20044;-86
2022/04/29 06:36:10;;;;;;;11.85;7.18;;;;;;;;;;5063033;28;20021;-85
2022/04/29 06:38:35;;;;;;;12.25;7.65;;;12.50;99.90;;;;;;5044504;28;20038;-83
2022/04/29 06:41:01;;;;;;;11.23;7.30;;;14.10;99.90;;;;;;5059922;28;20028;-83
2022/04/29 06:43:29;;;;;;;10.82;7.05;;;;;;;;;;5043168;28;20029;-86
2022/04/29 06:45:55;;;;;;;9.85;6.82;;;12.70;99.90;;;;;;5024846;28;20114;-84
2022/04/29 06:48:21;;;;;;;14.23;8.02;;;;;;;;;;5039885;28;20017;-83
2022/04/29 06:50:47;;;;;;;9.88;6.90;;;;;;;;;;5057352;28;20079;-83
2022/04/29 06:53:13;;;;;;;12.68;7.65;;;;;;;;;;5035519;28;20030;-85
2022/04/29 06:55:39;;;;;;;12.02;7.25;;;13.00;99.90;;;;;;5044734;28;20029;-82
2022/04/29 06:58:06;;;;;;;15.38;7.60;;;13.00;99.90;;;;;;5028996;28;20077;-84
2022/04/29 07:00:32;;;;;;;15.25;8.20;;;;;;;;;;5047249;28;20033;-85
2022/04/29 07:03:02;;;;;;;10.77;7.30;;;;;;;;;;5052800;28;20082;-84
2022/04/29 07:05:28;;;;;;;15.05;8.48;;;13.10;99.90;;;;;;5049282;28;20110;-85
2022/04/29 07:07:54;;;;;;;9.90;6.78;;;13.30;99.90;;;;;;5054235;28;20033;-84
2022/04/29 07:10:19;;;;;;;12.00;7.38;;;13.50;99.90;;;;;;5052254;28;20021;-84
2022/04/29 07:12:48;;;;;;;9.57;6.28;;;13.70;99.90;;;;;;5041181;28;20031;-85
2022/04/29 07:15:14;;;;;;;9.93;6.40;;;;;;;;;;5059674;28;20085;-84
2022/04/29 07:17:41;;;;;;;9.57;5.75;;;13.90;99.90;;;;;;5031908;28;20392;-89
2022/04/29 07:20:08;;;;;;;11.65;6.45;;;14.10;99.60;;;;;;5053670;28;20041;-82
2022/04/29 07:22:38;;;;;;;12.85;6.93;;;14.40;99.20;;;;;;5039291;28;20155;-84
2022/04/29 07:25:04;;;;;;;9.30;5.68;;;;;;;;;;5049945;28;20036;-82
2022/04/29 07:27:32;;;;;;;8.50;6.20;;;;;;;;;;5059284;28;20131;-80
2022/04/29 07:29:58;;;;;;;7.88;5.85;;;;;;;;;;5050262;28;20025;-83
2022/04/29 07:32:25;;;;;;;7.38;5.68;;;;;;;;;;5054686;28;20055;-83
2022/04/29 07:43:04;;;;;;;10.30;5.68;;;15.70;96.00;;;;;;5072406;28;20020;-85
2022/04/29 07:45:30;;;;;;;12.07;6.68;;;15.90;95.30;;;;;;5032746;28;20037;-84
2022/04/29 07:47:59;;;;;;;10.93;5.85;;;;;;;;;;5058833;28;20032;-84
2022/04/29 07:50:24;;;;;;;10.15;6.30;;;16.10;94.30;;;;;;5061530;28;20008;-83
2022/04/29 07:52:50;;;;;;;12.52;5.90;;;16.10;94.70;;;;;;5072755;28;20033;-88
2022/04/29 07:55:16;;;;;;;9.80;6.07;;;16.30;94.70;;;;;;5053967;28;20009;-85
2022/04/29 07:57:42;;;;;;;8.95;6.03;;;16.30;93.60;;;;;;5050211;28;20114;-83
2022/04/29 08:00:10;;;;;;;8.65;5.82;;;16.40;93.20;;;;;;5058027;28;20025;-86
2022/04/29 08:02:37;;;;;;;10.07;5.47;;;;;;;;;;5058568;28;20031;-82
2022/04/29 08:05:03;;;;;;;17.58;8.90;;;;;;;;;;5062779;28;20199;-85
2022/04/29 08:07:32;;;;;;;8.50;6.18;;;;;;;;;;5043580;28;20045;-84
2022/04/29 08:09:58;;;;;;;9.10;5.72;;;;;;;;;;5050956;28;20017;-86
2022/04/29 08:12:26;;;;;;;13.85;6.03;;;;;;;;;;5060064;28;20037;-85
2022/04/29 08:14:53;;;;;;;11.65;5.95;;;;;;;;;;5052965;28;20029;-84
2022/04/29 08:17:20;;;;;;;8.18;5.10;;;16.70;91.10;;;;;;5044327;28;20025;-83
2022/04/29 08:19:46;;;;;;;10.25;5.97;;;;;;;;;;5057881;28;20021;-83
2022/04/29 08:22:12;;;;;;;8.30;6.20;;;;;;;;;;5034785;28;20033;-82
2022/04/29 08:24:38;;;;;;;10.02;5.80;;;;;;;;;;5035933;28;20105;-82
2022/04/29 08:27:04;;;;;;;8.18;4.95;;;16.80;90.40;;;;;;5056293;28;20487;-85
2022/04/29 08:29:30;;;;;;;10.55;5.70;;;;;;;;;;5038235;28;20037;-80
2022/04/29 08:31:56;;;;;;;9.52;5.80;;;;;;;;;;5046083;28;20043;-83
2022/04/29 08:34:22;;;;;;;7.68;5.40;;;;;;;;;;5055716;28;20028;-84
2022/04/29 08:36:48;;;;;;;9.05;5.40;;;;;;;;;;5056114;28;20036;-82
2022/04/29 08:39:14;;;;;;;9.40;5.35;;;;;;;;;;5058629;28;20025;-80
2022/04/29 08:41:41;;;;;;;6.65;4.85;;;17.10;88.00;;;;;;5064036;28;20036;-83
2022/04/29 08:44:12;;;;;;;7.82;5.28;;;17.40;87.00;;;;;;5061493;28;20028;-84
2022/04/29 08:46:40;;;;;;;11.35;5.10;;;17.50;87.00;;;;;;5044189;28;20032;-86
2022/04/29 08:49:07;;;;;;;7.53;5.13;;;17.60;85.30;;;;;;5055621;28;20084;-83
2022/04/29 08:51:36;;;;;;;8.32;5.13;;;;;;;;;;5044001;28;20025;-85
2022/04/29 08:54:04;;;;;;;7.75;5.28;;;17.60;84.90;;;;;;5036296;28;20025;-82
2022/04/29 08:59:20;;;;;;;10.57;5.80;;;;;;;;;;5057699;28;20273;-81
2022/04/29 09:01:46;;;;;;;9.02;5.47;;;17.60;82.40;;;;;;5040592;28;20033;-83
2022/04/29 09:04:12;;;;;;;8.45;4.40;;;;;;;;;;5062464;28;20362;-83
2022/04/29 09:06:48;;;;;;;8.70;5.28;;;17.70;82.00;;;;;;5050885;28;20036;-83
2022/04/29 09:09:14;;;;;;;9.00;4.40;;;17.90;81.60;;;;;;5036157;28;20032;-82
2022/04/29 09:11:40;;;;;;;9.63;4.80;;;;;;;;;;5036635;28;20044;-84
2022/04/29 09:14:25;;;;;;;8.77;5.38;;;18.50;79.30;;;;;;5053637;28;20055;-85
2022/04/29 09:16:51;;;;;;;10.80;5.25;;;18.70;79.50;;;;;;5038537;28;20514;-86
2022/04/29 09:19:34;;;;;;;7.85;5.15;;;18.70;77.10;;;;;;5062112;28;20044;-83
2022/04/29 09:22:08;;;;;;;6.88;4.45;;;18.90;76.60;;;;;;5034719;28;20462;-82
2022/04/29 09:24:37;;;;;;;8.38;4.50;;;19.10;77.10;;;;;;5034351;28;20091;-83
2022/04/29 09:27:05;;;;;;;5.90;4.20;;;19.30;74.40;;;;;;5041977;28;20033;-81
2022/04/29 09:29:40;;;;;;;8.18;4.45;;;19.30;74.40;;;;;;5040312;28;20055;-83
2022/04/29 09:32:06;;;;;;;7.10;4.45;;;19.10;75.30;;;;;;5044232;28;20017;-83
2022/04/29 09:34:50;;;;;;;6.15;4.18;;;19.40;74.30;;;;;;5061213;28;20043;-84
2022/04/29 09:37:18;;;;;;;8.20;4.38;;;19.30;66.90;;;;;;5044265;28;20061;-85
2022/04/29 09:39:53;;;;;;;7.63;4.28;;;19.00;65.60;;;;;;5055310;28;20032;-84
2022/04/29 09:42:19;;;;;;;6.25;4.10;;;;;;;;;;5033052;28;20584;-83
2022/04/29 09:44:45;;;;;;;7.50;4.18;;;;;;;;;;5057272;28;20033;-81
2022/04/29 09:47:19;;;;;;;6.10;3.83;;;19.30;65.60;;;;;;5055173;28;20045;-84
2022/04/29 09:49:59;;;;;;;10.65;4.20;;;19.70;63.30;;;;;;5052752;28;20013;-83
2022/04/29 09:52:26;;;;;;;9.60;4.10;;;19.90;61.60;;;;;;5050398;28;20384;-82
2022/04/29 09:54:52;;;;;;;8.73;4.47;;;;;;;;;;5051388;28;20057;-87
2022/04/29 09:57:26;;;;;;;7.95;4.22;;;20.00;62.60;;;;;;5034500;28;20030;-83
2022/04/29 09:59:54;;;;;;;10.23;3.67;;;19.90;62.80;;;;;;5036705;28;20059;-85
2022/04/29 10:02:22;;;;;;;7.80;3.95;;;19.80;62.70;;;;;;5034699;28;20029;-85
2022/04/29 10:04:49;;;;;;;6.63;3.30;;;20.10;61.90;;;;;;5034621;28;20090;-81
2022/04/29 10:07:17;;;;;;;6.20;3.55;;;20.10;56.50;;;;;;5054220;28;20017;-82
2022/04/29 10:09:49;;;;;;;8.95;3.72;;;20.30;56.60;;;;;;5057682;28;20052;-84
2022/04/29 10:12:19;;;;;;;5.30;3.35;;;20.50;55.20;;;;;;5053976;28;20071;-83
2022/04/29 10:14:47;;;;;;;4.97;3.10;;;20.60;54.60;;;;;;5034631;28;20075;-82
2022/04/29 10:22:55;;;;;;;5.60;2.90;;;20.50;54.90;;;;;;5055594;28;20059;-84
2022/04/29 10:25:24;;;;;;;4.50;2.83;;;20.60;54.00;;;;;;5048405;28;20087;-84
2022/04/29 10:27:52;;;;;;;5.50;2.80;;;20.40;52.90;;;;;;5037066;28;20045;-83
2022/04/29 10:30:32;;;;;;;5.47;3.47;;;20.40;53.20;;;;;;5034056;28;20025;-83
2022/04/29 10:33:01;;;;;;;;;;;20.40;53.50;;;;;;5038114;28;20119;-84
2022/04/29 10:35:53;;;;;;;5.63;3.22;;;18.90;53.40;;;;;;5041917;28;19915;-85
2022/04/29 10:38:30;;;;;;;4.47;3.38;;;20.30;54.60;;;;;;5060745;28;20029;-83
2022/04/29 10:41:19;;;;;;;6.40;3.72;;;20.00;56.10;;;;;;5051458;28;20044;-82
2022/04/29 10:43:51;;;;;;;5.10;3.20;;;20.00;56.60;;;;;;5059936;28;20021;-87
2022/04/29 10:46:19;;;;;;;8.05;3.97;;;19.90;57.60;;;;;;5059960;28;20532;-83
2022/04/29 10:48:46;;;;;;;7.78;4.13;;;20.10;58.20;;;;;;5060755;28;20063;-85
2022/04/29 10:51:17;;;;;;;5.65;3.80;;;20.00;57.80;;;;;;5060308;28;20017;-85
2022/04/29 10:53:45;;;;;;;6.97;3.42;;;20.00;57.80;;;;;;5041240;28;20118;-83
2022/04/29 10:56:27;;;;;;;5.55;3.95;;;20.00;57.40;;;;;;5041716;28;20394;-84
2022/04/29 10:58:53;;;;;;;7.35;4.18;;;20.30;57.00;;;;;;5056810;28;20032;-82
2022/04/29 11:01:27;;;;;;;5.90;4.03;;;20.40;57.30;;;;;;5031245;28;20044;-83
2022/04/29 11:03:53;;;;;;;5.82;3.40;;;;;;;;;;5043173;28;20025;-83
2022/04/29 11:06:19;;;;;;;6.70;3.22;;;;;;;;;;5062193;28;20029;-84
2022/04/29 11:08:46;;;;;;;5.88;3.03;;;;;;;;;;5062980;28;20013;-83
2022/04/29 11:11:12;;;;;;;6.68;3.42;;;;;;;;;;5044353;28;20021;-82
2022/04/29 11:13:47;;;;;;;7.40;3.25;;;19.90;57.50;;;;;;5062533;28;20040;-81
2022/04/29 11:16:14;;;;;;;4.10;3.15;;;20.40;57.20;;;;;;5045461;28;20478;-84
2022/04/29 11:18:42;;;;;;;5.60;3.47;;;20.80;56.20;;;;;;5041438;28;20116;-81
2022/04/29 11:26:47;;;;;;;6.55;3.38;;;21.40;55.10;;;;;;5060389;28;20040;-82
2022/04/29 11:29:14;;;;;;;3.75;3.35;;;21.40;54.80;;;;;;5044942;28;20026;-82
2022/04/29 11:31:40;;;;;;;5.22;4.07;;;22.00;55.40;;;;;;5055439;28;20025;-83
2022/04/29 11:34:11;;;;;;;6.68;3.63;;;21.30;55.60;;;;;;5043851;28;20025;-81
2022/04/29 11:36:38;;;;;;;3.90;3.05;;;21.10;54.90;;;;;;5044758;28;20051;-81
2022/04/29 11:39:17;;;;;;;4.20;3.15;;;21.10;54.00;;;;;;5049020;28;20018;-79
2022/04/29 11:41:59;;;;;;;5.15;3.40;;;21.00;54.10;;;;;;5060974;28;20028;-82
2022/04/29 11:44:45;;;;;;;4.95;2.53;;;21.00;54.80;;;;;;5053099;28;20040;-83
2022/04/29 11:47:12;;;;;;;4.13;3.10;;;21.00;52.50;;;;;;5063025;28;20024;-82
2022/04/29 11:49:38;;;;;;;3.92;2.67;;;;;;;;;;5046626;28;20017;-84
2022/04/29 11:52:20;;;;;;;8.00;3.25;;;;;;;;;;5058302;28;20118;-83
2022/04/29 11:54:55;;;;;;;4.82;2.70;;;;;;;;;;5056249;28;20040;-84
2022/04/29 11:57:22;;;;;;;3.50;2.35;;;;;;;;;;5055236;28;20025;-84
2022/04/29 11:59:49;;;;;;;4.30;3.05;;;;;;;;;;5054168;28;20013;-83
2022/04/29 12:02:17;;;;;;;4.13;3.00;;;21.00;54.80;;;;;;5077869;28;20025;-86
2022/04/29 12:05:06;;;;;;;3.58;2.40;;;21.00;52.30;;;;;;5059857;28;20035;-83
2022/04/29 12:07:47;;;;;;;3.20;2.40;;;21.10;51.80;;;;;;5055504;28;20036;-85
2022/04/29 12:10:26;;;;;;;3.75;2.30;;;21.20;51.30;;;;;;5062162;28;20482;-81
2022/04/29 12:13:05;;;;;;;3.35;2.30;;;21.10;50.90;;;;;;5056461;28;20288;-82
2022/04/29 12:15:36;;;;;;;4.20;2.50;;;21.20;51.20;;;;;;5055366;28;20124;-85
2022/04/29 12:18:03;;;;;;;3.72;2.40;;;21.30;50.80;;;;;;5056011;28;20029;-82
2022/04/29 12:20:29;;;;;;;3.85;2.50;;;21.30;50.90;;;;;;5038851;28;20032;-83
2022/04/29 12:22:55;;;;;;;3.08;2.28;;;;;;;;;;5039161;28;20029;-82
2022/04/29 12:25:29;;;;;;;3.85;2.65;;;20.90;52.10;;;;;;5056067;28;20059;-80
2022/04/29 12:28:11;;;;;;;4.10;2.70;;;20.90;52.60;;;;;;5057430;28;20037;-81
2022/04/29 12:36:15;;;;;;;3.72;2.30;;;21.40;51.30;;;;;;5058436;28;20071;-81
2022/04/29 12:38:42;;;;;;;4.80;3.20;;;21.40;51.80;;;;;;5052584;28;20021;-84
2022/04/29 12:41:27;;;;;;;4.78;2.28;;;21.60;50.50;;;;;;5058155;28;20017;-82
2022/04/29 12:44:05;;;;;;;4.32;2.47;;;23.30;51.00;;;;;;5041026;28;20029;-82
2022/04/29 12:46:31;;;;;;;5.10;2.67;;;;;;;;;;5068660;28;20025;-85
2022/04/29 12:48:57;;;;;;;5.43;2.42;;;;;;;;;;5044600;28;20029;-84
2022/04/29 12:51:28;;;;;;;4.05;2.55;;;21.50;49.90;;;;;;5056308;28;20035;-82
2022/04/29 12:53:54;;;;;;;3.50;2.38;;;;;;;;;;5053819;28;20025;-81
2022/04/29 12:56:34;;;;;;;5.00;2.28;;;21.60;50.00;;;;;;5052150;28;20029;-81
2022/04/29 12:59:04;;;;;;;3.30;2.60;;;21.30;51.10;;;;;;5055478;28;20111;-81
2022/04/29 13:01:36;;;;;;;4.07;2.77;;;21.00;52.00;;;;;;5053333;28;20040;-83
2022/04/29 13:04:03;;;;;;;4.07;2.38;;;;;;;;;;5031902;28;20044;-82
2022/04/29 13:06:28;;;;;;;5.05;2.60;;;21.00;52.10;;;;;;5056106;28;20101;-82
2022/04/29 13:08:55;;;;;;;3.67;2.40;;;21.00;52.40;;;;;;5039395;28;20053;-81
2022/04/29 13:11:22;;;;;;;3.55;2.47;;;21.00;52.90;;;;;;5036327;28;20021;-81
2022/04/29 13:13:52;;;;;;;2.92;2.30;;;21.20;51.10;;;;;;5040738;28;20045;-83
2022/04/29 13:16:19;;;;;;;4.10;2.30;;;21.40;51.00;;;;;;5056146;28;20025;-84
2022/04/29 13:18:46;;;;;;;3.33;2.60;;;21.60;51.30;;;;;;5039047;28;20036;-82
2022/04/29 13:21:13;;;;;;;4.57;3.42;;;21.50;52.30;;;;;;5055561;28;20036;-82
2022/04/29 13:23:41;;;;;;;5.05;3.17;;;21.50;52.70;;;;;;5039248;28;20037;-84
2022/04/29 13:28:43;;;;;;;6.93;3.13;;;21.50;52.50;;;;;;5069927;28;20056;-81
2022/04/29 13:31:09;;;;;;;3.70;2.47;;;21.50;50.70;;;;;;5059195;28;20031;-80
2022/04/29 13:33:35;;;;;;;6.35;2.35;;;21.50;51.20;;;;;;5060696;28;20020;-79
2022/04/29 13:36:02;;;;;;;3.85;2.30;;;21.30;50.50;;;;;;5061658;28;20049;-79
2022/04/29 13:38:28;;;;;;;5.72;2.20;;;21.30;50.90;;;;;;5073504;28;20032;-80
2022/04/29 13:40:54;;;;;;;5.15;2.80;;;21.30;51.50;;;;;;5061822;28;20032;-79
2022/04/29 13:43:23;;;;;;;3.55;2.50;;;21.20;50.90;;;;;;5058556;28;20261;-82
2022/04/29 13:45:49;;;;;;;3.75;2.60;;;21.40;51.50;;;;;;5055428;28;20037;-79
2022/04/29 13:48:15;;;;;;;5.25;2.35;;;21.20;50.80;;;;;;5052689;28;20051;-80
2022/04/29 13:50:42;;;;;;;5.18;2.45;;;21.20;51.30;;;;;;5046729;28;20028;-81
2022/04/29 13:53:08;;;;;;;10.48;2.70;;;21.20;51.60;;;;;;5079400;28;20023;-82
2022/04/29 13:55:54;;;;;;;3.95;2.40;;;21.10;51.20;;;;;;5065206;28;20013;-83
2022/04/29 13:58:22;;;;;;;3.20;2.30;;;21.10;50.50;;;;;;5077542;28;20031;-81
2022/04/29 14:00:50;;;;;;;3.63;2.47;;;20.90;50.80;;;;;;5076151;28;20028;-79
2022/04/29 14:03:21;;;;;;;4.30;2.03;;;20.90;51.20;;;;;;5066654;28;20024;-83
2022/04/29 14:05:47;;;;;;;3.65;2.35;;;20.90;51.70;;;;;;5070125;28;20021;-80